Time;durP1;ratioP1;P1;durP2;ratioP2;P2;SDS_P1;SDS_P2;PMS_P1;PMS_P2;Temp;Humidity;BMP_temperature;BMP_pressure;BME280_temperature;BME280_humidity;BME280_pressure;Samples;Min_cycle;Max_cycle;Signal;HPM_P1;HPM_P2
2022/10/16 00:02:20;;;;;;;;;;;;;;;21.33;58.28;95699.34;10477734;28;2603;-46
2022/10/16 00:07:21;;;;;;;;;;;;;;;21.31;57.96;95709.38;10464740;28;2053;-49
2022/10/16 00:12:21;;;;;;;;;;;;;;;21.25;58.12;95708.63;10478715;28;2072;-46
2022/10/16 00:17:22;;;;;;;;;;;;;;;21.27;58.02;95711.75;10460729;28;2413;-49
2022/10/16 00:22:22;;;;;;;;;;;;;;;21.28;58.23;95705.44;10476425;28;2002;-50
2022/10/16 00:27:22;;;;;;;;;;;;;;;21.25;58.05;95692.00;10477992;28;2033;-49
2022/10/16 00:32:23;;;;;;;;;;;;;;;21.25;57.76;95703.34;10479263;28;2612;-47
2022/10/16 00:37:23;;;;;;;;;;;;;;;21.23;57.99;95705.47;10476268;28;2389;-52
2022/10/16 00:42:23;;;;;;;;;;;;;;;21.23;58.04;95697.56;10454253;28;2023;-48
2022/10/16 00:47:27;;;;;;;;;;;;;;;21.23;57.86;95702.03;10481153;28;1997;-48
2022/10/16 00:52:28;;;;;;;;;;;;;;;21.26;57.77;95704.13;10478388;28;2079;-50
2022/10/16 00:57:28;;;;;;;;;;;;;;;21.21;57.57;95712.88;10480836;28;2615;-46
2022/10/16 01:02:28;;;;;;;;;;;;;;;21.20;57.52;95705.25;10462284;28;2096;-47
2022/10/16 01:07:29;;;;;;;;;;;;;;;21.19;57.62;95712.38;10479807;28;2150;-47
2022/10/16 01:12:32;;;;;;;;;;;;;;;21.18;57.57;95723.19;10480443;28;2665;-50
2022/10/16 01:17:47;;;;;;;;;;;;;;;21.20;57.59;95729.75;10458937;28;2597;-50
2022/10/16 01:22:51;;;;;;;;;;;;;;;21.21;57.66;95738.44;10459628;28;2034;-46
2022/10/16 01:27:54;;;;;;;;;;;;;;;21.17;57.37;95724.25;10465796;28;2649;-51
2022/10/16 01:33:09;;;;;;;;;;;;;;;21.20;57.30;95731.59;10488999;28;2111;-50
2022/10/16 01:38:15;;;;;;;;;;;;;;;21.18;57.45;95731.09;10489154;28;2102;-49
2022/10/16 01:43:35;;;;;;;;;;;;;;;21.17;57.47;95724.25;10484407;28;2721;-51
2022/10/16 01:48:35;;;;;;;;;;;;;;;21.19;57.37;95719.47;10483009;28;2053;-49
2022/10/16 01:53:36;;;;;;;;;;;;;;;21.18;57.14;95715.28;10485139;28;2358;-49
2022/10/16 01:58:37;;;;;;;;;;;;;;;21.14;57.16;95709.00;10482206;28;2030;-46
2022/10/16 02:03:38;;;;;;;;;;;;;;;21.14;57.18;95709.78;10483968;28;2736;-47
2022/10/16 02:08:40;;;;;;;;;;;;;;;21.18;57.09;95707.38;10459184;28;2026;-48
2022/10/16 02:13:40;;;;;;;;;;;;;;;21.13;57.03;95700.28;10468325;28;2604;-48
2022/10/16 02:18:47;;;;;;;;;;;;;;;21.15;56.79;95710.56;10484569;28;2570;-49
2022/10/16 02:23:47;;;;;;;;;;;;;;;21.14;56.86;95709.00;10483417;28;2011;-53
2022/10/16 02:28:48;;;;;;;;;;;;;;;21.12;56.98;95709.28;10482822;28;2755;-48
2022/10/16 02:33:48;;;;;;;;;;;;;;;21.14;56.82;95712.44;10488506;28;2735;-50
2022/10/16 02:38:48;;;;;;;;;;;;;;;21.12;56.96;95722.47;10482498;28;2050;-52
2022/10/16 02:43:49;;;;;;;;;;;;;;;21.10;56.63;95723.78;10471596;28;2699;-50
2022/10/16 02:48:49;;;;;;;;;;;;;;;21.12;56.46;95719.03;10484463;28;2572;-48
2022/10/16 02:53:50;;;;;;;;;;;;;;;21.10;56.47;95726.44;10480918;28;2588;-51
2022/10/16 02:58:50;;;;;;;;;;;;;;;21.13;56.49;95737.19;10484375;28;2686;-49
2022/10/16 03:03:51;;;;;;;;;;;;;;;21.11;56.69;95733.25;10463772;28;2152;-46
2022/10/16 03:08:51;;;;;;;;;;;;;;;21.08;56.57;95718.00;10481454;28;2586;-49
2022/10/16 03:13:52;;;;;;;;;;;;;;;21.08;56.71;95714.31;10462958;28;2599;-48
2022/10/16 03:18:52;;;;;;;;;;;;;;;21.11;56.34;95717.44;10484361;28;1979;-51
2022/10/16 03:23:52;;;;;;;;;;;;;;;21.11;56.16;95717.44;10481894;28;2576;-47
2022/10/16 03:28:53;;;;;;;;;;;;;;;21.08;56.34;95730.13;10485734;28;2686;-51
2022/10/16 03:33:53;;;;;;;;;;;;;;;21.06;56.70;95726.97;10479323;28;2011;-48
2022/10/16 03:38:54;;;;;;;;;;;;;;;21.15;56.46;95731.63;10480542;28;2610;-47
2022/10/16 03:43:54;;;;;;;;;;;;;;;21.16;55.95;95730.59;10485502;28;2015;-50
2022/10/16 03:48:55;;;;;;;;;;;;;;;21.22;55.75;95734.75;10483566;28;2646;-50
2022/10/16 03:53:56;;;;;;;;;;;;;;;21.19;55.07;95741.34;10467546;28;2650;-50
2022/10/16 03:58:56;;;;;;;;;;;;;;;21.18;54.43;95739.00;10478205;28;2533;-50
2022/10/16 04:03:56;;;;;;;;;;;;;;;21.18;54.15;95739.00;10481423;28;2613;-48
2022/10/16 04:08:57;;;;;;;;;;;;;;;21.19;54.20;95736.09;10483433;28;2684;-47
2022/10/16 04:13:57;;;;;;;;;;;;;;;21.22;53.79;95738.19;10479661;28;2021;-50
2022/10/16 04:18:57;;;;;;;;;;;;;;;21.24;54.14;95732.63;10481777;28;2580;-47
2022/10/16 04:23:58;;;;;;;;;;;;;;;21.28;54.02;95736.28;10472737;28;2462;-46
2022/10/16 04:28:58;;;;;;;;;;;;;;;21.33;53.96;95736.25;10477956;28;2598;-49
2022/10/16 04:33:58;;;;;;;;;;;;;;;21.36;53.98;95735.66;10478595;28;2598;-48
2022/10/16 04:38:59;;;;;;;;;;;;;;;21.37;53.96;95740.66;10481501;28;2019;-47
2022/10/16 04:43:59;;;;;;;;;;;;;;;21.40;53.90;95744.59;10463531;28;2541;-47
2022/10/16 04:49:00;;;;;;;;;;;;;;;21.42;53.51;95750.38;10482179;28;2549;-48
2022/10/16 04:54:00;;;;;;;;;;;;;;;21.43;53.56;95747.44;10462599;28;2658;-52
2022/10/16 04:59:00;;;;;;;;;;;;;;;21.46;53.64;95740.84;10490613;28;2071;-45
2022/10/16 05:04:01;;;;;;;;;;;;;;;21.49;54.01;95724.47;10494219;28;2805;-48
2022/10/16 05:09:01;;;;;;;;;;;;;;;21.50;53.72;95734.75;10477367;28;2764;-47
2022/10/16 05:14:02;;;;;;;;;;;;;;;21.52;53.82;95734.44;10486507;28;2545;-47
2022/10/16 05:19:02;;;;;;;;;;;;;;;21.54;53.84;95743.66;10488490;28;2904;-47
2022/10/16 05:24:02;;;;;;;;;;;;;;;21.53;53.43;95736.03;10464922;28;2825;-49
2022/10/16 05:29:03;;;;;;;;;;;;;;;21.55;53.34;95744.47;10493524;28;2842;-49
2022/10/16 05:34:03;;;;;;;;;;;;;;;21.53;52.81;95754.50;10450028;28;2860;-47
2022/10/16 05:39:03;;;;;;;;;;;;;;;21.53;52.82;95755.28;10480690;28;2260;-49
2022/10/16 05:44:05;;;;;;;;;;;;;;;21.52;52.60;95766.09;10486091;28;2796;-49
2022/10/16 05:49:05;;;;;;;;;;;;;;;21.55;52.69;95768.19;10484457;28;2246;-49
2022/10/16 05:54:06;;;;;;;;;;;;;;;21.58;52.46;95780.81;10482290;28;2361;-48
2022/10/16 05:59:06;;;;;;;;;;;;;;;21.59;53.22;95783.19;10487660;28;2317;-49
2022/10/16 06:04:07;;;;;;;;;;;;;;;21.65;53.37;95783.91;10482453;28;2210;-49
2022/10/16 06:09:09;;;;;;;;;;;;;;;21.64;53.02;95774.41;10484572;28;2856;-49
2022/10/16 06:14:10;;;;;;;;;;;;;;;21.71;53.37;95783.59;10462138;28;2922;-50
2022/10/16 06:19:11;;;;;;;;;;;;;;;21.71;53.88;95790.72;10484895;28;2247;-48
2022/10/16 06:24:12;;;;;;;;;;;;;;;21.74;53.49;95790.94;10475605;28;2859;-47
2022/10/16 06:29:13;;;;;;;;;;;;;;;21.76;53.98;95798.59;10474928;28;2812;-49
2022/10/16 06:34:13;;;;;;;;;;;;;;;21.74;53.89;95806.75;10474949;28;2840;-50
2022/10/16 06:39:13;;;;;;;;;;;;;;;21.74;54.77;95813.91;10479948;28;2915;-47
2022/10/16 06:44:14;;;;;;;;;;;;;;;21.76;54.99;95817.06;10479668;28;2917;-49
2022/10/16 06:49:21;;;;;;;;;;;;;;;21.78;55.07;95828.88;10480819;28;2299;-48
2022/10/16 06:54:21;;;;;;;;;;;;;;;21.74;55.46;95829.75;10478785;28;2867;-51
2022/10/16 06:59:21;;;;;;;;;;;;;;;21.73;55.88;95830.78;10466061;28;2229;-47
2022/10/16 07:04:23;;;;;;;;;;;;;;;21.75;55.44;95842.66;10445702;28;2444;-47
2022/10/16 07:09:23;;;;;;;;;;;;;;;21.70;55.32;95845.31;10479540;28;2978;-48
2022/10/16 07:14:24;;;;;;;;;;;;;;;21.76;55.43;95854.00;10479422;28;2928;-49
2022/10/16 07:19:25;;;;;;;;;;;;;;;21.75;55.05;95855.03;10461673;28;2928;-48
2022/10/16 07:24:25;;;;;;;;;;;;;;;21.71;55.40;95852.19;10477053;28;2265;-47
2022/10/16 07:29:25;;;;;;;;;;;;;;;21.69;55.59;95856.16;10478576;28;2384;-49
2022/10/16 07:34:26;;;;;;;;;;;;;;;21.69;55.92;95870.16;10483450;28;3171;-50
2022/10/16 07:39:26;;;;;;;;;;;;;;;21.75;55.85;95876.16;10481781;28;2829;-50
2022/10/16 07:44:27;;;;;;;;;;;;;;;21.65;56.03;95881.53;10461809;28;2834;-48
2022/10/16 07:49:27;;;;;;;;;;;;;;;21.62;55.89;95892.63;10476374;28;2268;-47
2022/10/16 07:54:28;;;;;;;;;;;;;;;21.65;55.82;95892.88;10484122;28;3019;-45
2022/10/16 07:59:29;;;;;;;;;;;;;;;21.78;55.76;95899.38;10484047;28;2932;-44
2022/10/16 08:04:29;;;;;;;;;;;;;;;21.72;55.49;95903.13;10483705;28;2863;-46
2022/10/16 08:09:29;;;;;;;;;;;;;;;21.70;55.57;95902.59;10478420;28;2880;-44
2022/10/16 08:14:30;;;;;;;;;;;;;;;21.71;55.68;95898.88;10482513;28;2984;-48
2022/10/16 08:19:31;;;;;;;;;;;;;;;21.62;55.61;95900.53;10475962;28;2925;-48
2022/10/16 08:24:32;;;;;;;;;;;;;;;21.61;55.96;95914.78;10485580;28;3253;-48
2022/10/16 08:29:32;;;;;;;;;;;;;;;21.64;55.95;95911.59;10483589;28;2279;-45
2022/10/16 08:34:33;;;;;;;;;;;;;;;21.71;55.68;95912.88;10482288;28;2957;-50
2022/10/16 08:39:43;;;;;;;;;;;;;;;21.73;55.67;95921.28;10487000;28;2859;-45
2022/10/16 08:44:56;;;;;;;;;;;;;;;21.72;55.54;95919.72;10489571;28;2815;-46
2022/10/16 08:49:58;;;;;;;;;;;;;;;21.68;55.84;95923.16;10470160;28;2428;-45
2022/10/16 08:54:58;;;;;;;;;;;;;;;21.64;56.00;95932.69;10489489;28;2944;-48
2022/10/16 09:00:00;;;;;;;;;;;;;;;21.61;56.06;95941.97;10491401;28;2267;-48
2022/10/16 09:05:19;;;;;;;;;;;;;;;21.59;55.98;95951.22;10490133;28;3009;-50
2022/10/16 09:10:19;;;;;;;;;;;;;;;21.60;55.99;95950.13;10488388;28;2431;-47
2022/10/16 09:15:24;;;;;;;;;;;;;;;21.58;56.31;95945.16;10490999;28;2983;-46
2022/10/16 09:20:30;;;;;;;;;;;;;;;21.58;56.16;95947.78;10468856;28;2934;-46
2022/10/16 09:25:30;;;;;;;;;;;;;;;21.56;56.32;95943.84;10472578;28;2956;-48
2022/10/16 09:30:30;;;;;;;;;;;;;;;21.61;55.86;95944.59;10487671;28;2875;-48
2022/10/16 09:35:31;;;;;;;;;;;;;;;21.58;56.15;95949.63;10451296;28;2817;-47
2022/10/16 09:40:34;;;;;;;;;;;;;;;21.61;56.11;95949.88;10463642;28;2296;-45
2022/10/16 09:45:34;;;;;;;;;;;;;;;21.60;56.71;95955.41;10470645;28;3339;-48
2022/10/16 09:50:35;;;;;;;;;;;;;;;21.61;56.35;95960.44;10483946;28;2878;-48
2022/10/16 09:55:35;;;;;;;;;;;;;;;21.63;56.39;95963.59;10490541;28;2892;-45
2022/10/16 10:00:36;;;;;;;;;;;;;;;21.65;56.64;95971.22;10488980;28;2936;-48
2022/10/16 10:05:39;;;;;;;;;;;;;;;21.63;56.78;95973.34;10489414;28;2251;-46
2022/10/16 10:10:41;;;;;;;;;;;;;;;21.68;56.74;95968.00;10489015;28;2871;-45
2022/10/16 10:15:41;;;;;;;;;;;;;;;21.66;56.71;95970.16;10472561;28;2821;-50
2022/10/16 10:20:41;;;;;;;;;;;;;;;21.68;56.90;95962.75;10487072;28;2855;-50
2022/10/16 10:25:49;;;;;;;;;;;;;;;21.68;56.70;95968.81;10492676;28;2917;-45
2022/10/16 10:30:56;;;;;;;;;;;;;;;21.67;56.76;95972.53;10450051;28;2305;-48
2022/10/16 10:36:06;;;;;;;;;;;;;;;21.68;57.02;95968.81;10487985;28;2872;-49
2022/10/16 10:41:15;;;;;;;;;;;;;;;21.64;57.38;95961.72;10487170;28;2375;-45
2022/10/16 10:46:20;;;;;;;;;;;;;;;21.69;57.07;95962.50;10489389;28;2887;-46
2022/10/16 10:51:22;;;;;;;;;;;;;;;21.70;57.11;95966.69;10487050;28;2948;-49
2022/10/16 10:56:37;;;;;;;;;;;;;;;21.70;57.50;95963.28;10489074;28;2872;-47
2022/10/16 11:01:56;;;;;;;;;;;;;;;21.70;57.39;95969.31;10463590;28;2852;-46
2022/10/16 11:07:07;;;;;;;;;;;;;;;21.73;57.38;95965.34;10478384;28;2320;-45
2022/10/16 11:12:08;;;;;;;;;;;;;;;21.69;57.70;95965.13;10467437;28;2291;-47
2022/10/16 11:17:17;;;;;;;;;;;;;;;21.74;57.65;95961.66;10479923;28;2945;-47
2022/10/16 11:22:23;;;;;;;;;;;;;;;21.75;58.16;95966.66;10473786;28;2860;-48
2022/10/16 11:27:56;;;;;;;;;;;;;;;21.76;58.50;95959.53;10485481;28;2248;-45
2022/10/16 11:33:17;;;;;;;;;;;;;;;21.78;58.80;95965.34;10461725;28;2453;-46
2022/10/16 11:38:26;;;;;;;;;;;;;;;21.81;58.96;95964.75;10468640;28;2960;-47
2022/10/16 11:43:37;;;;;;;;;;;;;;;21.90;58.67;95967.63;10470527;28;2267;-46
2022/10/16 11:48:42;;;;;;;;;;;;;;;21.85;59.66;95952.63;10480714;28;2932;-49
2022/10/16 11:53:57;;;;;;;;;;;;;;;21.90;59.88;95957.06;10474456;28;3006;-52
2022/10/16 11:59:00;;;;;;;;;;;;;;;21.92;59.66;95955.75;10462644;28;2331;-49
2022/10/16 12:04:21;;;;;;;;;;;;;;;21.95;59.62;95965.72;10486462;28;2329;-46
2022/10/16 12:09:21;;;;;;;;;;;;;;;21.96;59.42;95959.41;10459516;28;2887;-48
2022/10/16 12:14:33;;;;;;;;;;;;;;;21.96;52.68;95961.25;10470086;28;2999;-46
2022/10/16 12:19:33;;;;;;;;;;;;;;;21.90;45.88;95952.59;10481661;28;2969;-49
2022/10/16 12:24:37;;;;;;;;;;;;;;;21.93;44.32;95956.53;10481028;28;2311;-50
2022/10/16 12:29:38;;;;;;;;;;;;;;;21.90;46.04;95951.81;10481334;28;3013;-50
2022/10/16 12:34:39;;;;;;;;;;;;;;;21.92;47.20;95950.47;10465980;28;2826;-50
2022/10/16 12:39:40;;;;;;;;;;;;;;;22.02;46.33;95950.38;10480720;28;2868;-49
2022/10/16 12:44:40;;;;;;;;;;;;;;;22.12;46.07;95949.47;10467341;28;2888;-47
2022/10/16 12:49:47;;;;;;;;;;;;;;;22.42;45.45;95949.22;10463985;28;2889;-50
2022/10/16 12:54:48;;;;;;;;;;;;;;;23.05;44.05;95952.44;10462453;28;2876;-49
2022/10/16 12:59:51;;;;;;;;;;;;;;;23.58;42.56;95942.47;10481819;28;2852;-46
2022/10/16 13:04:53;;;;;;;;;;;;;;;23.97;41.55;95946.34;10480899;28;2872;-47
2022/10/16 13:09:53;;;;;;;;;;;;;;;24.49;41.80;95939.09;10477611;28;3020;-51
2022/10/16 13:14:53;;;;;;;;;;;;;;;24.59;42.06;95938.91;10479378;28;2330;-50
2022/10/16 13:19:56;;;;;;;;;;;;;;;24.00;43.84;95942.34;10483635;28;2331;-52
2022/10/16 13:24:57;;;;;;;;;;;;;;;23.96;45.11;95944.78;10485151;28;2300;-53
2022/10/16 13:30:01;;;;;;;;;;;;;;;24.57;44.58;95946.38;10485900;28;2915;-52
2022/10/16 13:35:01;;;;;;;;;;;;;;;24.87;44.28;95954.53;10494627;28;2901;-49
2022/10/16 13:40:02;;;;;;;;;;;;;;;24.61;44.79;95950.00;10487731;28;2968;-49
2022/10/16 13:45:03;;;;;;;;;;;;;;;23.96;46.69;95947.44;10493587;28;2817;-49
2022/10/16 13:50:09;;;;;;;;;;;;;;;23.56;47.63;95956.00;10490515;28;2374;-48
2022/10/16 13:55:13;;;;;;;;;;;;;;;23.26;49.22;95959.06;10474720;28;2883;-47
2022/10/16 14:00:23;;;;;;;;;;;;;;;23.11;49.65;95967.97;10492796;28;2843;-47
2022/10/16 14:05:29;;;;;;;;;;;;;;;22.98;50.74;95973.94;10487770;28;2287;-50
2022/10/16 14:10:31;;;;;;;;;;;;;;;22.88;51.09;95983.84;10472948;28;2904;-49
2022/10/16 14:15:36;;;;;;;;;;;;;;;22.78;51.35;95974.19;10479447;28;2338;-47
2022/10/16 14:20:36;;;;;;;;;;;;;;;22.61;51.60;95972.00;10462831;28;2353;-45
2022/10/16 14:25:37;;;;;;;;;;;;;;;22.50;52.40;95973.13;10493002;28;2314;-49
2022/10/16 14:30:37;;;;;;;;;;;;;;;22.49;52.49;95976.06;10465133;28;3014;-48
2022/10/16 14:35:38;;;;;;;;;;;;;;;22.46;52.27;95969.47;10489329;28;2859;-46
2022/10/16 14:40:45;;;;;;;;;;;;;;;22.38;53.06;95975.38;10452256;28;2258;-51
2022/10/16 14:45:49;;;;;;;;;;;;;;;22.35;53.47;95973.31;10472300;28;2337;-49
2022/10/16 14:50:50;;;;;;;;;;;;;;;22.35;53.48;95975.94;10467534;28;2974;-49
2022/10/16 14:55:50;;;;;;;;;;;;;;;22.35;53.80;95985.72;10486171;28;2869;-51
2022/10/16 15:00:50;;;;;;;;;;;;;;;22.32;53.85;95980.97;10480522;28;2852;-48
2022/10/16 15:05:51;;;;;;;;;;;;;;;22.40;54.88;95978.53;10476548;28;2968;-49
2022/10/16 15:10:51;;;;;;;;;;;;;;;22.36;54.50;95984.66;10483038;28;2891;-44
2022/10/16 15:15:51;;;;;;;;;;;;;;;22.35;56.55;95991.78;10452165;28;2936;-45
2022/10/16 15:20:52;;;;;;;;;;;;;;;22.32;56.09;95997.63;10466032;28;2907;-46
2022/10/16 15:25:53;;;;;;;;;;;;;;;22.28;56.86;95999.25;10482665;28;2835;-45
2022/10/16 15:30:53;;;;;;;;;;;;;;;22.27;57.64;96002.97;10476899;28;3022;-47
2022/10/16 15:35:54;;;;;;;;;;;;;;;22.24;57.96;95995.56;10485846;28;2352;-46
2022/10/16 15:40:54;;;;;;;;;;;;;;;22.19;58.31;96003.56;10481335;28;2985;-46
2022/10/16 15:46:05;;;;;;;;;;;;;;;22.16;58.48;96004.09;10464694;28;2902;-47
2022/10/16 15:51:06;;;;;;;;;;;;;;;22.14;59.35;96014.16;10478514;28;2260;-46
2022/10/16 15:56:07;;;;;;;;;;;;;;;22.13;59.29;96009.16;10482770;28;2216;-46
2022/10/16 16:01:09;;;;;;;;;;;;;;;22.12;58.78;96004.94;10480971;28;2843;-46
2022/10/16 16:06:10;;;;;;;;;;;;;;;22.09;59.47;96019.47;10481391;28;2275;-48
2022/10/16 16:11:11;;;;;;;;;;;;;;;22.08;59.48;96017.91;10475557;28;2885;-44
2022/10/16 16:16:12;;;;;;;;;;;;;;;22.05;59.60;96023.72;10479103;28;2868;-44
2022/10/16 16:21:12;;;;;;;;;;;;;;;22.01;59.79;96027.22;10478956;28;2831;-46
2022/10/16 16:26:13;;;;;;;;;;;;;;;22.00;60.66;96031.69;10479735;28;2879;-46
2022/10/16 16:31:14;;;;;;;;;;;;;;;21.99;60.43;96030.09;10454043;28;2983;-46
2022/10/16 16:36:14;;;;;;;;;;;;;;;21.98;60.47;96039.09;10489721;28;2268;-46
2022/10/16 16:41:15;;;;;;;;;;;;;;;21.97;60.73;96036.75;10493382;28;2288;-43
2022/10/16 16:46:15;;;;;;;;;;;;;;;22.00;60.56;96050.16;10497332;28;2956;-47
2022/10/16 16:51:17;;;;;;;;;;;;;;;22.01;60.80;96054.38;10479479;28;2438;-47
2022/10/16 16:56:17;;;;;;;;;;;;;;;22.01;61.15;96054.38;10473728;28;2851;-44
2022/10/16 17:01:18;;;;;;;;;;;;;;;22.01;60.94;96066.81;10467616;28;2349;-45
2022/10/16 17:06:25;;;;;;;;;;;;;;;22.00;61.23;96068.66;10482164;28;2322;-47
2022/10/16 17:11:26;;;;;;;;;;;;;;;22.00;61.28;96081.84;10466586;28;2872;-46
2022/10/16 17:16:33;;;;;;;;;;;;;;;22.01;60.56;96080.00;10460999;28;2865;-50
2022/10/16 17:21:34;;;;;;;;;;;;;;;22.04;61.42;96084.72;10481041;28;2105;-49
2022/10/16 17:26:39;;;;;;;;;;;;;;;22.06;61.17;96088.66;10455767;28;2871;-48
2022/10/16 17:31:40;;;;;;;;;;;;;;;22.06;61.49;96093.94;10476939;28;2326;-47
2022/10/16 17:36:42;;;;;;;;;;;;;;;22.07;61.37;96100.03;10480377;28;2260;-49
2022/10/16 17:41:44;;;;;;;;;;;;;;;22.04;61.40;96101.34;10486606;28;2856;-46
2022/10/16 17:46:48;;;;;;;;;;;;;;;22.04;61.20;96121.69;10488376;28;2915;-49
2022/10/16 17:51:49;;;;;;;;;;;;;;;22.03;61.57;96120.13;10473368;28;3009;-49
2022/10/16 17:56:49;;;;;;;;;;;;;;;22.00;61.44;96121.44;10489578;28;2240;-48
2022/10/16 18:01:49;;;;;;;;;;;;;;;22.01;61.40;96130.16;10487590;28;2367;-45
2022/10/16 18:06:50;;;;;;;;;;;;;;;22.00;61.32;96139.13;10481946;28;2909;-48
2022/10/16 18:11:58;;;;;;;;;;;;;;;21.98;61.35;96144.69;10486098;28;2310;-49
2022/10/16 18:16:58;;;;;;;;;;;;;;;21.98;61.43;96143.88;10488532;28;2916;-47
2022/10/16 18:21:58;;;;;;;;;;;;;;;21.96;61.44;96141.53;10480758;28;2288;-50
2022/10/16 18:26:59;;;;;;;;;;;;;;;21.95;61.33;96142.56;10482590;28;2862;-47
2022/10/16 18:31:59;;;;;;;;;;;;;;;21.94;61.53;96148.94;10482222;28;2971;-47
2022/10/16 18:37:03;;;;;;;;;;;;;;;21.94;61.05;96150.78;10483456;28;3172;-48
2022/10/16 18:42:03;;;;;;;;;;;;;;;21.93;61.35;96157.91;10473159;28;2959;-50
2022/10/16 18:47:04;;;;;;;;;;;;;;;21.93;61.50;96163.16;10484695;28;2311;-51
2022/10/16 18:52:05;;;;;;;;;;;;;;;21.92;61.46;96156.34;10484224;28;2434;-49
2022/10/16 18:57:05;;;;;;;;;;;;;;;21.91;61.21;96160.00;10484554;28;2474;-51
2022/10/16 19:02:06;;;;;;;;;;;;;;;21.90;61.30;96166.38;10489101;28;2831;-47
2022/10/16 19:07:06;;;;;;;;;;;;;;;21.92;61.40;96174.00;10484888;28;3023;-50
2022/10/16 19:12:07;;;;;;;;;;;;;;;21.92;61.53;96171.38;10485739;28;2916;-49
2022/10/16 19:17:07;;;;;;;;;;;;;;;21.92;61.33;96177.44;10478055;28;3060;-49
2022/10/16 19:22:12;;;;;;;;;;;;;;;21.93;61.55;96178.25;10480014;28;2291;-52
2022/10/16 19:27:13;;;;;;;;;;;;;;;21.88;61.61;96176.41;10479942;28;2887;-48
2022/10/16 19:32:13;;;;;;;;;;;;;;;21.91;61.46;96194.31;10478433;28;2891;-48
2022/10/16 19:37:14;;;;;;;;;;;;;;;21.92;61.97;96198.56;10469501;28;2968;-47
2022/10/16 19:42:14;;;;;;;;;;;;;;;21.92;62.10;96201.19;10485467;28;2797;-48
2022/10/16 19:47:14;;;;;;;;;;;;;;;21.94;62.01;96203.56;10479578;28;2923;-46
2022/10/16 19:52:16;;;;;;;;;;;;;;;21.94;62.37;96209.63;10468829;28;2852;-49
2022/10/16 19:57:16;;;;;;;;;;;;;;;21.93;61.96;96210.69;10475409;28;2898;-50
2022/10/16 20:02:16;;;;;;;;;;;;;;;21.92;62.21;96217.03;10475637;28;2369;-49
2022/10/16 20:07:17;;;;;;;;;;;;;;;21.91;62.27;96228.66;10462993;28;3059;-49
2022/10/16 20:12:17;;;;;;;;;;;;;;;21.89;62.30;96225.47;10479738;28;2252;-48
2022/10/16 20:17:17;;;;;;;;;;;;;;;21.88;61.54;96234.47;10475906;28;2334;-46
2022/10/16 20:22:17;;;;;;;;;;;;;;;21.84;61.55;96233.44;10471211;28;2938;-48
2022/10/16 20:27:18;;;;;;;;;;;;;;;21.82;61.97;96230.28;10473475;28;2839;-48
2022/10/16 20:32:18;;;;;;;;;;;;;;;21.80;61.81;96237.66;10477830;28;2013;-51
2022/10/16 20:37:18;;;;;;;;;;;;;;;21.80;61.78;96242.91;10478970;28;2009;-45
2022/10/16 20:42:19;;;;;;;;;;;;;;;21.78;61.81;96245.03;10477822;28;2008;-49
2022/10/16 20:47:19;;;;;;;;;;;;;;;21.76;61.59;96247.94;10476834;28;2043;-47
2022/10/16 20:52:19;;;;;;;;;;;;;;;21.75;61.75;96248.19;10480247;28;2049;-49
2022/10/16 20:57:20;;;;;;;;;;;;;;;21.74;61.78;96249.28;10482461;28;2027;-49
2022/10/16 21:02:20;;;;;;;;;;;;;;;21.73;61.58;96247.69;10481615;28;1995;-49
2022/10/16 21:07:21;;;;;;;;;;;;;;;21.71;61.75;96250.59;10490402;28;1948;-49
2022/10/16 21:12:24;;;;;;;;;;;;;;;21.71;61.68;96258.50;10488615;28;1730;-48
2022/10/16 21:17:25;;;;;;;;;;;;;;;21.72;61.66;96254.03;10487360;28;1906;-47
2022/10/16 21:22:28;;;;;;;;;;;;;;;21.70;61.51;96264.06;10480582;28;1990;-47
2022/10/16 21:27:29;;;;;;;;;;;;;;;21.68;61.59;96259.03;10479442;28;1948;-47
2022/10/16 21:32:29;;;;;;;;;;;;;;;21.68;61.58;96255.59;10463299;28;2093;-49
2022/10/16 21:37:29;;;;;;;;;;;;;;;21.67;61.35;96261.94;10484685;28;2053;-51
2022/10/16 21:42:30;;;;;;;;;;;;;;;21.66;60.94;96263.00;10483704;28;2061;-48
2022/10/16 21:47:32;;;;;;;;;;;;;;;21.65;61.04;96258.78;10475349;28;1982;-48
2022/10/16 21:52:34;;;;;;;;;;;;;;;21.64;60.87;96258.00;10471078;28;1932;-46
2022/10/16 21:57:35;;;;;;;;;;;;;;;21.63;61.18;96260.91;10487290;28;1969;-51
2022/10/16 22:02:35;;;;;;;;;;;;;;;21.63;61.06;96255.63;10472355;28;2058;-47
2022/10/16 22:07:35;;;;;;;;;;;;;;;21.62;61.06;96254.03;10485881;28;1919;-48
2022/10/16 22:12:35;;;;;;;;;;;;;;;21.61;61.12;96249.81;10485339;28;1962;-50
2022/10/16 22:17:36;;;;;;;;;;;;;;;21.61;60.93;96245.34;10487682;28;2006;-46
2022/10/16 22:22:36;;;;;;;;;;;;;;;21.60;61.06;96250.88;10486013;28;1997;-47
2022/10/16 22:27:37;;;;;;;;;;;;;;;21.60;60.56;96253.50;10467349;28;1923;-46
2022/10/16 22:32:37;;;;;;;;;;;;;;;21.59;60.79;96258.03;10486059;28;1970;-48
2022/10/16 22:37:37;;;;;;;;;;;;;;;21.59;60.88;96258.03;10472024;28;1999;-47
2022/10/16 22:42:38;;;;;;;;;;;;;;;21.60;60.70;96258.78;10484746;28;2088;-46
2022/10/16 22:47:38;;;;;;;;;;;;;;;21.59;60.76;96259.84;10487464;28;2056;-47
2022/10/16 22:52:38;;;;;;;;;;;;;;;21.58;60.42;96260.91;10484534;28;1892;-48
2022/10/16 22:57:39;;;;;;;;;;;;;;;21.57;60.82;96256.69;10469272;28;1972;-45
2022/10/16 23:02:39;;;;;;;;;;;;;;;21.57;60.60;96270.69;10486392;28;2069;-50
2022/10/16 23:07:39;;;;;;;;;;;;;;;21.59;60.44;96262.50;10486789;28;2080;-46
2022/10/16 23:12:40;;;;;;;;;;;;;;;21.57;60.73;96259.34;10481983;28;2041;-47
2022/10/16 23:17:40;;;;;;;;;;;;;;;21.56;60.51;96257.75;10481068;28;1981;-51
2022/10/16 23:22:40;;;;;;;;;;;;;;;21.56;60.29;96258.53;10480800;28;1907;-51
2022/10/16 23:27:40;;;;;;;;;;;;;;;21.56;60.56;96269.09;10483855;28;2074;-48
2022/10/16 23:32:41;;;;;;;;;;;;;;;21.55;60.49;96270.16;10488302;28;2052;-46
2022/10/16 23:37:42;;;;;;;;;;;;;;;21.53;60.60;96274.91;10484721;28;1970;-50
2022/10/16 23:42:42;;;;;;;;;;;;;;;21.54;60.34;96284.41;10466854;28;2105;-47
2022/10/16 23:47:42;;;;;;;;;;;;;;;21.53;60.37;96269.63;10483255;28;2142;-46
2022/10/16 23:52:42;;;;;;;;;;;;;;;21.54;60.39;96280.97;10482096;28;2019;-49
2022/10/16 23:57:43;;;;;;;;;;;;;;;21.52;60.11;96278.59;10480328;28;2096;-47
